Time;durP1;ratioP1;P1;durP2;ratioP2;P2;SDS_P1;SDS_P2;PMS_P1;PMS_P2;Temp;Humidity;BMP_temperature;BMP_pressure;BME280_temperature;BME280_humidity;BME280_pressure;Samples;Min_cycle;Max_cycle;Signal;HPM_P1;HPM_P2
2023/03/16 00:02:12;;;;;;;18.02;7.32;;;1.80;99.90;;;;;;4989055;28;20413;-53
2023/03/16 00:04:38;;;;;;;14.75;7.50;;;;;;;;;;4990721;28;20100;-55
2023/03/16 00:07:05;;;;;;;18.27;6.95;;;;;;;;;;4989205;28;20042;-54
2023/03/16 00:09:31;;;;;;;17.13;7.10;;;1.30;99.90;;;;;;4990182;28;20034;-55
2023/03/16 00:12:02;;;;;;;13.32;7.13;;;1.40;99.90;;;;;;4990264;28;20045;-56
2023/03/16 00:14:28;;;;;;;11.85;6.15;;;1.30;99.90;;;;;;4990246;28;20027;-51
2023/03/16 00:16:54;;;;;;;7.35;5.57;;;1.30;99.90;;;;;;4990052;28;20041;-56
2023/03/16 00:19:21;;;;;;;11.38;4.97;;;1.30;99.90;;;;;;4989999;28;20034;-56
2023/03/16 00:21:48;;;;;;;19.80;6.45;;;1.20;99.90;;;;;;4988965;28;20541;-52
2023/03/16 00:24:23;;;;;;;9.88;6.35;;;1.20;99.90;;;;;;5085989;27;20451;-50
2023/03/16 00:26:53;;;;;;;8.95;5.95;;;1.20;99.90;;;;;;5085687;28;20073;-54
2023/03/16 00:31:46;;;;;;;8.57;5.55;;;1.20;99.90;;;;;;5023714;28;20045;-47
2023/03/16 00:34:14;;;;;;;8.48;5.28;;;1.30;99.90;;;;;;5027645;28;20489;-50
2023/03/16 00:36:41;;;;;;;9.73;5.35;;;1.20;99.90;;;;;;5028530;28;20037;-48
2023/03/16 00:39:09;;;;;;;11.52;4.97;;;1.20;99.90;;;;;;5028495;28;20406;-54
2023/03/16 00:41:36;;;;;;;10.52;5.10;;;1.20;99.90;;;;;;5028529;28;20488;-53
2023/03/16 00:44:03;;;;;;;10.32;5.03;;;1.20;99.90;;;;;;5028394;28;20029;-56
2023/03/16 00:46:28;;;;;;;8.10;5.10;;;1.10;99.90;;;;;;5028490;28;20029;-51
2023/03/16 00:48:54;;;;;;;8.05;4.95;;;1.10;99.90;;;;;;5028282;28;20026;-55
2023/03/16 00:51:21;;;;;;;9.07;4.80;;;1.10;99.90;;;;;;5028434;28;20021;-48
2023/03/16 00:53:47;;;;;;;8.88;4.57;;;1.00;99.90;;;;;;5028366;28;20029;-51
2023/03/16 00:56:15;;;;;;;8.80;4.53;;;;;;;;;;5028249;28;20396;-53
2023/03/16 00:58:42;;;;;;;6.93;4.78;;;0.90;99.90;;;;;;5028199;28;20032;-51
2023/03/16 01:01:12;;;;;;;10.98;5.97;;;;;;;;;;5027936;28;20549;-49
2023/03/16 01:03:38;;;;;;;8.32;5.43;;;1.00;99.90;;;;;;5010363;28;20052;-53
2023/03/16 01:06:05;;;;;;;5.95;4.75;;;0.90;99.90;;;;;;5027765;28;20026;-51
2023/03/16 01:08:32;;;;;;;16.38;6.25;;;0.90;99.90;;;;;;5028247;28;20275;-54
2023/03/16 01:11:02;;;;;;;13.20;5.03;;;1.00;99.90;;;;;;5028299;28;20020;-54
2023/03/16 01:13:28;;;;;;;8.57;4.60;;;1.00;99.90;;;;;;5028225;28;20406;-49
2023/03/16 01:15:54;;;;;;;107.97;50.53;;;0.90;99.90;;;;;;5027942;28;20026;-54
2023/03/16 01:18:22;;;;;;;86.78;40.70;;;;;;;;;;5027882;28;20055;-54
2023/03/16 01:20:49;;;;;;;19.63;8.45;;;;;;;;;;5027664;28;20104;-52
2023/03/16 01:23:19;;;;;;;9.07;5.10;;;1.30;99.90;;;;;;5009897;28;20117;-54
2023/03/16 01:25:52;;;;;;;10.48;4.38;;;0.90;99.90;;;;;;5027763;28;20030;-52
2023/03/16 01:28:23;;;;;;;10.63;4.90;;;;;;;;;;5027859;28;20041;-52
2023/03/16 01:30:53;;;;;;;12.30;6.30;;;;;;;;;;5027453;28;20084;-53
2023/03/16 01:33:20;;;;;;;11.70;5.20;;;;;;;;;;5027324;28;20026;-53
2023/03/16 01:35:56;;;;;;;8.80;4.80;;;;;;;;;;5014211;28;20158;-55
2023/03/16 01:38:22;;;;;;;;;;;;;;;;;;5014921;28;20030;-52
2023/03/16 01:40:50;;;;;;;8.30;4.90;;;1.40;99.90;;;;;;5013996;28;20003;-50
2023/03/16 01:43:17;;;;;;;6.93;4.50;;;1.30;99.90;;;;;;5014355;28;20031;-48
2023/03/16 01:46:04;;;;;;;13.57;5.95;;;1.20;99.90;;;;;;5014353;28;20446;-54
2023/03/16 01:48:56;;;;;;;11.52;4.93;;;1.20;99.90;;;;;;5014326;28;20397;-52
2023/03/16 01:51:30;;;;;;;8.45;5.15;;;1.30;99.90;;;;;;5014540;28;20110;-53
2023/03/16 01:54:22;;;;;;;7.82;4.93;;;1.20;99.90;;;;;;5014447;28;20022;-53
2023/03/16 01:57:01;;;;;;;11.25;5.28;;;1.10;99.90;;;;;;5004190;28;20034;-48
2023/03/16 01:59:32;;;;;;;8.10;5.60;;;1.10;99.90;;;;;;4996391;28;20033;-48
2023/03/16 02:01:57;;;;;;;9.93;5.97;;;1.00;99.90;;;;;;5014072;28;20025;-50
2023/03/16 02:04:43;;;;;;;10.10;5.72;;;1.00;99.90;;;;;;5013917;28;20033;-50
2023/03/16 02:07:09;;;;;;;7.72;5.10;;;1.00;99.90;;;;;;5013927;28;20030;-49
2023/03/16 02:09:41;;;;;;;6.70;5.32;;;1.00;99.90;;;;;;5013907;28;20094;-49
2023/03/16 02:12:08;;;;;;;10.77;5.75;;;1.00;99.90;;;;;;5013812;28;20030;-51
2023/03/16 02:14:33;;;;;;;11.60;5.88;;;0.90;99.90;;;;;;5013466;28;20431;-54
2023/03/16 02:16:59;;;;;;;9.95;6.13;;;0.80;99.90;;;;;;5013747;28;20040;-50
2023/03/16 02:19:51;;;;;;;10.63;6.10;;;0.80;99.90;;;;;;5013557;28;20057;-49
2023/03/16 02:22:17;;;;;;;7.95;5.63;;;0.90;99.90;;;;;;4968886;28;20121;-49
2023/03/16 02:24:43;;;;;;;7.72;5.70;;;0.90;99.90;;;;;;5013678;28;20026;-51
2023/03/16 02:27:18;;;;;;;8.85;6.15;;;0.80;99.90;;;;;;5013392;28;20022;-49
2023/03/16 02:29:52;;;;;;;9.80;6.05;;;0.80;99.90;;;;;;5013329;28;20378;-49
2023/03/16 02:32:20;;;;;;;11.23;6.47;;;0.80;99.90;;;;;;5013168;28;20022;-51
2023/03/16 02:34:46;;;;;;;9.10;6.03;;;0.80;99.90;;;;;;5013382;28;20026;-51
2023/03/16 02:37:11;;;;;;;6.57;5.75;;;0.80;99.90;;;;;;5013240;28;20033;-53
2023/03/16 02:39:37;;;;;;;13.45;7.20;;;0.80;99.90;;;;;;5012941;28;20037;-52
2023/03/16 02:42:03;;;;;;;9.98;7.45;;;0.70;99.90;;;;;;5013176;28;20044;-55
2023/03/16 02:44:35;;;;;;;10.60;6.45;;;0.70;99.90;;;;;;5013174;28;20514;-54
2023/03/16 02:47:14;;;;;;;9.70;7.00;;;0.60;99.90;;;;;;5012147;28;20492;-52
2023/03/16 02:49:41;;;;;;;7.05;6.10;;;;;;;;;;5012733;28;20498;-54
2023/03/16 02:52:08;;;;;;;9.55;6.53;;;0.40;99.90;;;;;;5013076;28;20030;-52
2023/03/16 02:54:33;;;;;;;8.80;6.32;;;0.40;99.90;;;;;;5013035;28;20018;-50
2023/03/16 02:56:59;;;;;;;13.93;6.90;;;0.40;99.90;;;;;;5012726;28;20032;-53
2023/03/16 02:59:25;;;;;;;17.58;7.10;;;0.30;99.90;;;;;;5012909;28;20109;-49
2023/03/16 03:01:50;;;;;;;9.88;6.25;;;0.40;99.90;;;;;;5012909;28;20021;-48
2023/03/16 03:04:16;;;;;;;10.43;6.68;;;0.40;99.90;;;;;;5012815;28;20034;-53
2023/03/16 03:06:41;;;;;;;11.95;7.25;;;0.40;99.90;;;;;;5012722;28;20026;-53
2023/03/16 03:09:10;;;;;;;8.98;6.70;;;0.30;99.90;;;;;;5012317;28;20524;-51
2023/03/16 03:11:36;;;;;;;11.60;6.88;;;0.30;99.90;;;;;;5012594;28;20060;-51
2023/03/16 03:14:02;;;;;;;15.20;8.05;;;0.30;99.90;;;;;;5012826;28;20030;-52
2023/03/16 03:16:28;;;;;;;13.27;6.38;;;0.30;99.90;;;;;;5012685;28;20026;-53
2023/03/16 03:18:54;;;;;;;13.98;7.10;;;0.30;99.90;;;;;;5012822;28;20038;-51
2023/03/16 03:21:20;;;;;;;14.57;7.03;;;0.30;99.90;;;;;;5012571;28;20403;-50
2023/03/16 03:23:45;;;;;;;10.23;7.18;;;0.30;99.90;;;;;;5012516;28;20038;-52
2023/03/16 03:26:14;;;;;;;10.40;7.18;;;0.30;99.90;;;;;;4994394;28;20029;-48
2023/03/16 03:28:40;;;;;;;8.50;5.95;;;0.30;99.90;;;;;;5012458;28;20018;-47
2023/03/16 03:31:05;;;;;;;9.25;6.47;;;0.30;99.90;;;;;;5012214;28;20030;-48
2023/03/16 03:33:32;;;;;;;9.70;6.78;;;;;;;;;;5012458;28;20038;-48
2023/03/16 03:36:00;;;;;;;11.00;5.78;;;;;;;;;;5012408;28;20026;-54
2023/03/16 03:38:26;;;;;;;11.70;7.05;;;0.50;99.90;;;;;;5012652;28;20061;-51
2023/03/16 03:40:53;;;;;;;12.32;6.97;;;0.60;99.90;;;;;;5012085;28;20095;-49
2023/03/16 03:43:19;;;;;;;9.65;6.47;;;0.40;99.90;;;;;;5012027;28;20033;-51
2023/03/16 03:45:50;;;;;;;8.98;6.05;;;;;;;;;;5012115;28;20044;-54
2023/03/16 03:48:17;;;;;;;10.07;6.68;;;;;;;;;;5012215;28;20064;-51
2023/03/16 03:50:47;;;;;;;12.48;6.88;;;;;;;;;;5011988;28;20113;-50
2023/03/16 03:53:14;;;;;;;15.63;6.88;;;;;;;;;;5012620;28;20025;-53
2023/03/16 03:55:41;;;;;;;11.68;7.00;;;;;;;;;;5011998;28;20058;-53
2023/03/16 03:58:12;;;;;;;10.50;6.28;;;;;;;;;;5011737;28;20052;-49
2023/03/16 04:00:38;;;;;;;10.93;6.57;;;0.20;99.90;;;;;;5011561;28;20036;-54
2023/03/16 04:03:05;;;;;;;12.35;7.25;;;0.30;99.90;;;;;;5011838;28;20061;-56
2023/03/16 04:05:31;;;;;;;10.48;6.85;;;;;;;;;;5012070;28;20393;-48
2023/03/16 04:07:57;;;;;;;10.77;7.03;;;;;;;;;;5011530;28;20026;-51
2023/03/16 04:10:24;;;;;;;14.25;7.75;;;;;;;;;;5011659;28;20026;-49
2023/03/16 04:12:49;;;;;;;17.50;9.30;;;;;;;;;;5011880;28;20440;-51
2023/03/16 04:15:15;;;;;;;13.23;6.53;;;0.10;99.90;;;;;;4994239;28;20045;-51
2023/03/16 04:17:41;;;;;;;12.02;7.32;;;0.00;99.90;;;;;;5011955;28;20116;-52
2023/03/16 04:20:12;;;;;;;10.13;7.65;;;0.00;99.90;;;;;;5012319;28;20022;-54
2023/03/16 04:22:38;;;;;;;13.95;8.25;;;0.00;99.90;;;;;;5012494;28;20034;-56
2023/03/16 04:25:04;;;;;;;12.27;8.32;;;0.00;99.90;;;;;;5011843;28;20075;-48
2023/03/16 04:27:35;;;;;;;13.50;8.75;;;-0.20;99.90;;;;;;5011606;28;20033;-49
2023/03/16 04:30:04;;;;;;;23.17;8.52;;;-0.30;99.90;;;;;;5011559;28;20086;-51
2023/03/16 04:32:30;;;;;;;13.85;8.98;;;-0.30;99.90;;;;;;5012290;28;20049;-53
2023/03/16 04:34:56;;;;;;;14.40;8.35;;;-0.30;99.90;;;;;;5012261;28;20022;-52
2023/03/16 04:37:21;;;;;;;12.50;7.80;;;-0.40;99.90;;;;;;5012315;28;20037;-50
2023/03/16 04:39:47;;;;;;;14.52;9.15;;;-0.40;99.90;;;;;;5012148;28;20053;-55
2023/03/16 04:42:12;;;;;;;16.15;8.50;;;-0.40;99.90;;;;;;5011888;28;20552;-48
2023/03/16 04:44:43;;;;;;;12.40;9.02;;;-0.40;99.90;;;;;;5011386;28;20081;-47
2023/03/16 04:47:10;;;;;;;11.75;8.18;;;-0.50;99.90;;;;;;4993819;28;20018;-49
2023/03/16 04:49:35;;;;;;;15.57;8.63;;;-0.50;99.90;;;;;;5011280;28;20026;-52
2023/03/16 04:52:01;;;;;;;15.25;8.68;;;-0.50;99.90;;;;;;5011525;28;20022;-46
2023/03/16 04:54:26;;;;;;;12.32;8.15;;;-0.60;99.90;;;;;;4993897;28;20452;-48
2023/03/16 04:56:52;;;;;;;14.48;8.85;;;-0.50;99.90;;;;;;5011281;28;20528;-51
2023/03/16 04:59:18;;;;;;;12.40;8.25;;;-0.50;99.90;;;;;;5011057;28;20101;-51
2023/03/16 05:01:43;;;;;;;16.65;9.27;;;-0.50;99.90;;;;;;5011296;28;20128;-48
2023/03/16 05:04:09;;;;;;;13.73;8.32;;;-0.50;99.90;;;;;;5011228;28;20038;-50
2023/03/16 05:06:35;;;;;;;13.55;8.80;;;-0.50;99.90;;;;;;5011240;28;20030;-47
2023/03/16 05:09:00;;;;;;;13.18;8.35;;;-0.40;99.90;;;;;;5011391;28;20091;-50
2023/03/16 05:11:27;;;;;;;12.80;9.15;;;-0.30;99.90;;;;;;4997036;28;20084;-52
2023/03/16 05:13:52;;;;;;;17.50;9.38;;;-0.30;99.90;;;;;;5014909;28;20401;-53
2023/03/16 05:16:18;;;;;;;16.10;8.75;;;-0.20;99.90;;;;;;5014941;28;20026;-49
2023/03/16 05:18:43;;;;;;;14.55;9.07;;;-0.10;99.90;;;;;;5014848;28;20032;-50
2023/03/16 05:21:09;;;;;;;14.25;9.13;;;0.00;99.90;;;;;;5014562;28;20495;-49
2023/03/16 05:23:47;;;;;;;12.82;9.07;;;0.00;99.90;;;;;;5014779;28;20044;-48
2023/03/16 05:26:12;;;;;;;13.07;8.13;;;0.10;99.90;;;;;;4997041;28;20045;-54
2023/03/16 05:28:38;;;;;;;15.73;9.20;;;0.00;99.90;;;;;;5014553;28;20026;-49
2023/03/16 05:31:05;;;;;;;16.13;8.88;;;0.10;99.90;;;;;;5014513;28;20041;-49
2023/03/16 05:33:30;;;;;;;18.85;10.15;;;0.10;99.90;;;;;;5014738;28;20485;-49
2023/03/16 05:35:56;;;;;;;16.27;9.82;;;0.10;99.90;;;;;;5014450;28;20164;-49
2023/03/16 05:38:23;;;;;;;16.80;8.82;;;0.10;99.90;;;;;;4996927;28;20025;-47
2023/03/16 05:40:51;;;;;;;17.63;9.07;;;0.10;99.90;;;;;;5014205;28;20030;-49
2023/03/16 05:43:19;;;;;;;18.70;9.52;;;0.10;99.90;;;;;;5014412;28;20092;-48
2023/03/16 05:45:45;;;;;;;17.15;9.55;;;0.20;99.90;;;;;;5014426;28;20030;-49
2023/03/16 05:48:10;;;;;;;13.40;8.60;;;0.20;99.90;;;;;;5014299;28;20069;-55
2023/03/16 05:50:36;;;;;;;12.00;7.85;;;0.20;99.90;;;;;;4996360;28;20482;-53
2023/03/16 05:53:01;;;;;;;11.52;8.35;;;0.30;99.90;;;;;;4996632;28;20085;-49
2023/03/16 05:55:27;;;;;;;12.75;8.20;;;0.40;99.90;;;;;;5014421;28;20029;-49
2023/03/16 05:57:52;;;;;;;12.27;8.85;;;0.60;99.90;;;;;;5014055;28;20033;-53
2023/03/16 06:00:19;;;;;;;16.02;8.20;;;0.90;99.90;;;;;;4996269;28;20025;-49
2023/03/16 06:02:47;;;;;;;11.55;8.00;;;1.10;99.90;;;;;;4996376;28;20026;-50
2023/03/16 06:05:14;;;;;;;10.80;7.82;;;1.20;99.90;;;;;;5013967;28;20026;-49
2023/03/16 06:07:40;;;;;;;10.95;7.65;;;1.20;99.90;;;;;;5013668;28;20037;-48
2023/03/16 06:10:06;;;;;;;10.80;7.93;;;1.10;99.90;;;;;;5013421;28;20442;-52
2023/03/16 06:12:33;;;;;;;15.60;8.32;;;1.20;99.90;;;;;;5013656;28;20030;-48
2023/03/16 06:14:59;;;;;;;11.10;8.18;;;1.40;99.90;;;;;;4996111;28;20049;-55
2023/03/16 06:17:25;;;;;;;13.27;8.23;;;1.50;99.90;;;;;;5013583;28;20092;-50
2023/03/16 06:19:51;;;;;;;21.90;9.13;;;1.70;99.90;;;;;;4995734;28;20125;-55
2023/03/16 06:22:17;;;;;;;10.50;7.05;;;1.90;99.90;;;;;;5013630;28;20026;-50
2023/03/16 06:24:43;;;;;;;12.35;7.32;;;;;;;;;;5013447;28;20028;-48
2023/03/16 06:27:09;;;;;;;14.13;8.65;;;;;;;;;;5013371;28;20032;-49
2023/03/16 06:29:35;;;;;;;10.45;7.50;;;3.40;99.90;;;;;;4996095;28;20572;-55
2023/03/16 06:32:00;;;;;;;10.82;7.68;;;3.40;99.90;;;;;;5014127;28;20100;-50
2023/03/16 06:34:26;;;;;;;10.73;7.72;;;3.90;99.90;;;;;;5013460;28;20037;-49
2023/03/16 06:36:52;;;;;;;13.40;7.18;;;4.40;99.90;;;;;;5013477;28;20422;-51
2023/03/16 06:39:17;;;;;;;10.85;6.53;;;4.90;99.90;;;;;;4995890;28;20468;-52
2023/03/16 06:41:43;;;;;;;9.45;6.72;;;5.20;99.90;;;;;;5013313;28;20061;-50
2023/03/16 06:44:09;;;;;;;13.25;7.18;;;5.40;99.90;;;;;;5013400;28;20034;-49
2023/03/16 06:46:34;;;;;;;9.73;7.22;;;5.50;99.90;;;;;;5013237;28;20031;-50
2023/03/16 06:49:00;;;;;;;9.57;6.85;;;5.80;99.90;;;;;;5013294;28;20029;-51
2023/03/16 06:51:26;;;;;;;16.27;7.07;;;5.70;99.90;;;;;;5013003;28;20072;-51
2023/03/16 06:53:52;;;;;;;13.98;6.80;;;5.60;99.90;;;;;;5013074;28;20096;-50
2023/03/16 06:56:17;;;;;;;8.05;6.13;;;5.90;99.90;;;;;;4995447;28;20034;-50
2023/03/16 06:58:43;;;;;;;9.70;6.30;;;6.00;99.90;;;;;;4995636;28;20037;-49
2023/03/16 07:01:09;;;;;;;7.78;5.95;;;6.40;99.90;;;;;;5013008;28;20037;-51
2023/03/16 07:03:34;;;;;;;11.10;7.75;;;6.60;99.90;;;;;;5012880;28;20033;-52
2023/03/16 07:06:00;;;;;;;8.32;6.05;;;6.70;99.90;;;;;;5012772;28;20018;-51
2023/03/16 07:08:26;;;;;;;8.15;6.55;;;7.20;99.90;;;;;;5012504;28;20505;-50
2023/03/16 07:10:53;;;;;;;9.27;6.25;;;7.30;99.90;;;;;;5012541;28;20065;-51
2023/03/16 07:13:19;;;;;;;9.13;6.82;;;7.30;99.90;;;;;;5012838;28;20112;-49
2023/03/16 07:15:44;;;;;;;8.75;6.25;;;7.10;99.90;;;;;;5012785;28;20064;-52
2023/03/16 07:18:11;;;;;;;7.90;6.13;;;6.80;99.90;;;;;;4995383;28;20033;-49
2023/03/16 07:20:37;;;;;;;8.93;6.25;;;6.80;99.90;;;;;;5012580;28;20108;-50
2023/03/16 07:23:03;;;;;;;10.73;6.40;;;6.80;99.90;;;;;;5012767;28;20114;-49
2023/03/16 07:25:30;;;;;;;9.02;6.05;;;6.70;99.90;;;;;;5012655;28;20025;-49
2023/03/16 07:27:56;;;;;;;11.35;6.88;;;6.90;99.90;;;;;;5012591;28;20049;-55
2023/03/16 07:30:21;;;;;;;6.32;5.53;;;7.20;99.90;;;;;;5012271;28;20073;-57
2023/03/16 07:32:47;;;;;;;10.38;6.45;;;7.60;99.90;;;;;;5011906;28;20040;-53
2023/03/16 07:35:12;;;;;;;7.05;6.03;;;7.90;99.90;;;;;;5012495;28;20075;-52
2023/03/16 07:37:38;;;;;;;8.45;6.70;;;7.50;99.90;;;;;;5012340;28;20109;-52
2023/03/16 07:40:06;;;;;;;8.02;6.45;;;7.20;99.90;;;;;;5012296;28;20096;-50
2023/03/16 07:42:34;;;;;;;9.88;6.80;;;7.10;99.90;;;;;;5012220;28;20018;-53
2023/03/16 07:45:00;;;;;;;9.88;5.40;;;7.30;99.90;;;;;;5012314;28;20601;-50
2023/03/16 07:47:26;;;;;;;7.63;6.05;;;7.70;99.90;;;;;;5012286;28;20105;-48
2023/03/16 07:49:51;;;;;;;10.68;7.50;;;8.20;99.90;;;;;;5011986;28;20097;-49
2023/03/16 07:52:17;;;;;;;8.25;5.70;;;8.50;99.90;;;;;;4994552;28;20022;-52
2023/03/16 07:54:42;;;;;;;10.63;6.32;;;8.70;99.90;;;;;;5012261;28;20049;-51
2023/03/16 07:57:09;;;;;;;10.27;7.00;;;8.20;99.90;;;;;;5012401;28;20036;-59
2023/03/16 07:59:34;;;;;;;12.20;5.82;;;7.90;99.90;;;;;;5012178;28;20034;-53
2023/03/16 08:02:00;;;;;;;7.75;6.40;;;7.30;99.90;;;;;;5012064;28;20034;-54
2023/03/16 08:04:25;;;;;;;12.75;7.32;;;6.80;99.90;;;;;;5012002;28;20033;-51
2023/03/16 08:06:58;;;;;;;9.48;7.68;;;6.30;99.90;;;;;;5012099;28;20481;-54
2023/03/16 08:09:25;;;;;;;7.95;6.55;;;6.00;99.90;;;;;;5011340;28;20485;-52
2023/03/16 08:11:50;;;;;;;10.52;7.00;;;5.90;99.90;;;;;;5007995;28;20026;-51
2023/03/16 08:14:16;;;;;;;9.00;6.82;;;5.70;99.90;;;;;;5011698;28;20104;-52
2023/03/16 08:16:41;;;;;;;9.30;6.80;;;5.60;99.90;;;;;;5011592;28;20453;-51
2023/03/16 08:19:07;;;;;;;9.07;6.30;;;5.40;99.90;;;;;;5011802;28;20030;-55
2023/03/16 08:21:33;;;;;;;9.13;6.28;;;5.30;99.90;;;;;;5011864;28;20531;-54
2023/03/16 08:23:58;;;;;;;9.73;6.65;;;5.20;99.90;;;;;;5011722;28;20034;-52
2023/03/16 08:26:25;;;;;;;11.32;6.28;;;5.10;99.90;;;;;;5011618;28;20030;-52
2023/03/16 08:28:51;;;;;;;9.93;6.90;;;5.20;99.90;;;;;;5011571;28;20026;-51
2023/03/16 08:31:17;;;;;;;9.60;6.72;;;5.20;99.90;;;;;;5011397;28;20397;-51
2023/03/16 08:33:45;;;;;;;11.80;6.38;;;5.30;99.90;;;;;;5010772;28;20109;-52
2023/03/16 08:36:12;;;;;;;7.72;6.50;;;5.30;99.90;;;;;;5011505;28;20018;-52
2023/03/16 08:38:41;;;;;;;11.35;6.50;;;5.30;99.90;;;;;;5011206;28;20062;-52
2023/03/16 08:41:07;;;;;;;8.52;6.65;;;5.30;99.90;;;;;;5011474;28;20568;-51
2023/03/16 08:43:33;;;;;;;9.82;6.10;;;5.40;99.90;;;;;;5011482;28;20065;-51
2023/03/16 08:46:00;;;;;;;8.75;6.30;;;5.50;99.90;;;;;;5014294;28;20040;-53
2023/03/16 08:48:27;;;;;;;9.27;6.93;;;5.50;99.90;;;;;;5013581;28;20026;-55
2023/03/16 08:50:54;;;;;;;8.98;6.40;;;5.70;99.90;;;;;;5014928;28;20088;-53
2023/03/16 08:53:19;;;;;;;8.32;6.30;;;5.70;99.90;;;;;;5015407;28;20029;-49
2023/03/16 08:55:46;;;;;;;13.05;7.13;;;5.90;99.90;;;;;;5015415;28;20481;-50
2023/03/16 08:58:12;;;;;;;9.70;6.00;;;6.00;99.90;;;;;;5015639;28;20030;-49
2023/03/16 09:00:38;;;;;;;8.23;5.63;;;6.10;99.90;;;;;;5015326;28;20030;-46
2023/03/16 09:03:05;;;;;;;8.48;5.70;;;6.20;99.90;;;;;;5015159;28;20026;-49
2023/03/16 09:05:31;;;;;;;8.30;6.05;;;6.30;99.90;;;;;;5015318;28;20401;-52
2023/03/16 09:07:57;;;;;;;7.93;6.13;;;6.50;99.90;;;;;;5015092;28;20018;-54
2023/03/16 09:10:24;;;;;;;9.57;5.82;;;6.70;99.90;;;;;;5015031;28;20038;-53
2023/03/16 09:12:51;;;;;;;8.88;5.75;;;7.00;99.90;;;;;;5015318;28;20029;-49
2023/03/16 09:15:18;;;;;;;6.97;5.75;;;7.40;99.90;;;;;;5015202;28;20029;-49
2023/03/16 09:17:44;;;;;;;7.75;5.50;;;8.00;99.90;;;;;;5014883;28;20101;-50
2023/03/16 09:20:11;;;;;;;5.57;4.97;;;8.50;99.90;;;;;;4997012;28;20535;-46
2023/03/16 09:22:37;;;;;;;6.90;5.40;;;9.20;99.90;;;;;;5014831;28;20034;-49
2023/03/16 09:25:05;;;;;;;8.80;5.50;;;10.10;99.90;;;;;;5014911;28;20052;-49
2023/03/16 09:27:35;;;;;;;8.20;4.93;;;11.00;99.80;;;;;;5014743;28;20096;-50
2023/03/16 09:30:02;;;;;;;8.00;4.85;;;11.60;98.60;;;;;;4997248;28;20026;-53
2023/03/16 09:32:29;;;;;;;5.38;4.70;;;12.00;98.00;;;;;;5015044;28;20025;-55
2023/03/16 09:34:54;;;;;;;5.38;4.15;;;12.40;97.10;;;;;;5015002;28;20026;-50
2023/03/16 09:37:21;;;;;;;8.00;4.68;;;12.30;96.60;;;;;;5014809;28;20524;-54
2023/03/16 09:39:48;;;;;;;5.35;4.80;;;12.10;96.80;;;;;;5014711;28;20461;-51
2023/03/16 09:42:17;;;;;;;6.13;5.38;;;11.90;96.90;;;;;;5014608;28;20033;-49
2023/03/16 09:45:10;;;;;;;6.28;5.55;;;11.60;97.50;;;;;;5014405;28;20049;-54
2023/03/16 09:47:37;;;;;;;8.60;4.88;;;11.60;98.30;;;;;;5014411;28;20018;-53
2023/03/16 09:50:07;;;;;;;5.22;3.85;;;11.90;96.90;;;;;;5013246;28;20026;-54
2023/03/16 09:52:56;;;;;;;5.70;4.57;;;12.00;97.00;;;;;;5013791;28;20409;-51
2023/03/16 09:55:33;;;;;;;5.90;4.47;;;12.30;97.20;;;;;;5013907;28;20060;-51
2023/03/16 09:58:03;;;;;;;5.80;4.47;;;12.60;96.70;;;;;;5014129;28;20536;-49
2023/03/16 10:00:57;;;;;;;8.93;4.70;;;12.30;96.60;;;;;;5014029;28;20022;-52
2023/03/16 10:03:26;;;;;;;10.35;5.68;;;12.50;97.80;;;;;;5014098;28;20052;-52
2023/03/16 10:05:59;;;;;;;7.78;5.25;;;12.20;96.60;;;;;;5013410;28;20049;-54
2023/03/16 10:08:35;;;;;;;6.32;5.60;;;12.20;96.70;;;;;;5014183;28;20100;-50
2023/03/16 10:11:16;;;;;;;5.28;4.63;;;12.10;97.20;;;;;;5013573;28;20096;-53
2023/03/16 10:13:50;;;;;;;8.75;5.20;;;12.20;96.70;;;;;;5003851;28;20113;-50
2023/03/16 10:16:20;;;;;;;8.00;5.05;;;12.30;96.80;;;;;;5013517;28;20041;-53
2023/03/16 10:18:49;;;;;;;5.43;4.85;;;12.50;96.40;;;;;;5013919;28;20612;-52
2023/03/16 10:21:18;;;;;;;7.40;5.28;;;12.90;96.10;;;;;;5013898;28;20022;-47
2023/03/16 10:23:45;;;;;;;8.02;5.20;;;12.90;95.40;;;;;;5013766;28;20028;-50
2023/03/16 10:26:17;;;;;;;8.48;4.65;;;12.90;95.40;;;;;;5013565;28;20101;-48
2023/03/16 10:28:44;;;;;;;7.30;4.70;;;13.30;95.20;;;;;;5013555;28;20029;-51
2023/03/16 10:31:11;;;;;;;7.43;5.18;;;13.30;94.80;;;;;;5013229;28;20033;-48
2023/03/16 10:33:37;;;;;;;5.15;4.63;;;13.50;94.90;;;;;;5012850;28;20109;-52
2023/03/16 10:36:14;;;;;;;6.22;5.07;;;13.30;95.00;;;;;;5012887;28;20104;-52
2023/03/16 10:38:45;;;;;;;5.95;4.75;;;13.40;95.30;;;;;;5012852;28;20049;-52
2023/03/16 10:41:32;;;;;;;6.00;4.68;;;13.30;94.30;;;;;;5011915;28;20084;-47
2023/03/16 10:44:10;;;;;;;5.80;4.65;;;13.20;94.60;;;;;;5012845;28;20513;-51
2023/03/16 10:46:52;;;;;;;7.32;4.80;;;12.80;94.80;;;;;;5012650;28;20025;-50
2023/03/16 10:49:24;;;;;;;7.90;5.20;;;12.70;95.70;;;;;;5013406;28;20429;-51
2023/03/16 10:51:51;;;;;;;6.38;4.35;;;12.60;95.80;;;;;;5013117;28;20022;-49
2023/03/16 10:54:29;;;;;;;5.32;4.18;;;12.40;95.40;;;;;;5013179;28;20088;-49
2023/03/16 10:56:55;;;;;;;9.20;5.47;;;12.30;96.10;;;;;;5013196;28;20053;-52
2023/03/16 10:59:35;;;;;;;6.15;4.65;;;12.10;96.70;;;;;;5012612;28;20058;-49
2023/03/16 11:02:14;;;;;;;6.32;4.35;;;12.00;96.70;;;;;;5012389;28;20121;-55
2023/03/16 11:04:39;;;;;;;5.78;4.95;;;11.80;96.40;;;;;;5013849;28;20080;-50
2023/03/16 11:07:08;;;;;;;5.30;4.80;;;11.60;96.60;;;;;;5012333;28;20041;-49
2023/03/16 11:09:36;;;;;;;7.20;4.53;;;11.50;97.20;;;;;;5013222;28;20450;-54
2023/03/16 11:12:20;;;;;;;4.68;4.00;;;11.10;97.80;;;;;;5013832;28;20022;-47
2023/03/16 11:14:47;;;;;;;6.10;3.72;;;10.90;97.90;;;;;;5010817;28;20072;-49
2023/03/16 11:17:17;;;;;;;4.13;3.70;;;10.90;98.60;;;;;;5008497;28;20056;-51
2023/03/16 11:19:56;;;;;;;5.00;4.40;;;10.90;98.50;;;;;;5001553;28;20088;-55
2023/03/16 11:22:24;;;;;;;5.65;4.50;;;10.90;98.60;;;;;;5012333;28;20121;-56
2023/03/16 11:25:14;;;;;;;7.65;4.80;;;10.90;99.40;;;;;;5011744;28;20022;-52
2023/03/16 11:27:49;;;;;;;17.17;12.30;;;11.00;99.10;;;;;;5011978;28;20030;-51
2023/03/16 11:30:18;;;;;;;7.80;5.43;;;10.90;99.20;;;;;;5011684;28;20529;-54
2023/03/16 11:32:53;;;;;;;5.43;4.18;;;10.90;99.50;;;;;;5012260;28;20028;-55
2023/03/16 11:35:35;;;;;;;5.03;4.10;;;11.00;99.10;;;;;;5012363;28;20061;-49
2023/03/16 11:38:35;;;;;;;7.20;4.32;;;11.00;98.50;;;;;;5012160;28;20413;-51
2023/03/16 11:41:09;;;;;;;3.92;3.50;;;10.90;98.50;;;;;;5011045;28;20033;-54
2023/03/16 11:44:05;;;;;;;6.13;4.40;;;10.80;98.70;;;;;;5012266;28;20022;-57
2023/03/16 11:46:37;;;;;;;;;;;10.70;99.60;;;;;;5010998;28;20034;-52
2023/03/16 11:49:33;;;;;;;3.60;3.30;;;10.80;99.40;;;;;;5011801;28;19910;-49
2023/03/16 11:51:58;;;;;;;;;;;10.80;98.80;;;;;;4994901;28;20018;-53
2023/03/16 11:54:36;;;;;;;;;;;11.00;99.10;;;;;;5012579;28;19958;-52
2023/03/16 11:57:23;;;;;;;4.40;3.97;;;11.00;98.50;;;;;;5012030;28;19909;-52
2023/03/16 12:00:06;;;;;;;5.30;4.10;;;11.00;98.70;;;;;;5012229;28;20022;-50
2023/03/16 12:02:52;;;;;;;5.70;3.88;;;11.00;98.60;;;;;;5012161;28;20381;-50
2023/03/16 12:05:57;;;;;;;4.07;3.63;;;11.00;98.80;;;;;;5012037;28;20033;-49
2023/03/16 12:08:48;;;;;;;5.10;3.90;;;11.10;98.40;;;;;;5012517;28;20488;-49
2023/03/16 12:11:19;;;;;;;4.25;3.40;;;11.10;98.60;;;;;;5009349;28;20044;-51
2023/03/16 12:14:06;;;;;;;5.78;3.70;;;11.10;98.40;;;;;;5011968;28;20102;-49
2023/03/16 12:17:03;;;;;;;3.85;3.55;;;11.20;98.90;;;;;;5012651;28;20030;-54
2023/03/16 12:19:40;;;;;;;5.57;3.47;;;11.20;98.50;;;;;;5004043;28;20552;-51
2023/03/16 12:22:39;;;;;;;4.15;3.63;;;11.20;98.20;;;;;;5012063;28;20026;-54
2023/03/16 12:25:15;;;;;;;4.28;3.70;;;11.30;98.80;;;;;;5012909;28;20033;-52
2023/03/16 12:27:42;;;;;;;3.60;3.22;;;11.50;98.70;;;;;;5012931;28;20207;-48
2023/03/16 12:30:11;;;;;;;4.07;3.17;;;11.50;98.50;;;;;;5011222;28;20022;-55
2023/03/16 12:32:52;;;;;;;8.02;3.60;;;11.70;98.70;;;;;;5012068;28;20026;-54
2023/03/16 12:35:41;;;;;;;4.78;3.40;;;11.80;97.80;;;;;;5011613;28;20065;-58
2023/03/16 12:38:27;;;;;;;4.05;3.65;;;11.80;97.50;;;;;;5000775;28;20095;-53
2023/03/16 12:41:15;;;;;;;6.85;3.60;;;11.80;97.80;;;;;;4994007;28;20034;-54
2023/03/16 12:43:59;;;;;;;2.53;2.33;;;11.80;97.20;;;;;;5011773;28;20026;-51
2023/03/16 12:46:55;;;;;;;3.00;2.58;;;11.70;96.30;;;;;;4993940;28;20053;-51
2023/03/16 12:49:23;;;;;;;3.65;2.08;;;11.60;96.60;;;;;;5011347;28;20026;-50
2023/03/16 12:52:02;;;;;;;1.83;1.70;;;11.40;95.40;;;;;;5011820;28;20390;-52
2023/03/16 12:54:28;;;;;;;3.40;2.47;;;11.50;95.80;;;;;;5011525;28;20032;-48
2023/03/16 12:57:08;;;;;;;2.58;1.65;;;11.60;95.90;;;;;;5011380;28;20104;-50
2023/03/16 12:59:35;;;;;;;3.15;2.03;;;11.60;95.30;;;;;;5011095;28;20035;-52
2023/03/16 13:02:05;;;;;;;2.45;2.17;;;11.50;95.00;;;;;;5011216;28;20092;-50
2023/03/16 13:04:39;;;;;;;2.58;1.85;;;11.50;95.40;;;;;;5011327;28;20395;-48
2023/03/16 13:07:23;;;;;;;4.75;2.20;;;11.50;96.00;;;;;;5011175;28;20033;-51
2023/03/16 13:10:01;;;;;;;1.88;1.73;;;11.60;96.10;;;;;;5011077;28;20079;-49
2023/03/16 13:12:35;;;;;;;1.85;1.60;;;11.70;96.40;;;;;;5011120;28;20109;-52
2023/03/16 13:15:03;;;;;;;3.00;1.93;;;11.70;95.40;;;;;;5011617;28;20032;-48